Time;durP1;ratioP1;P1;durP2;ratioP2;P2;SDS_P1;SDS_P2;PMS_P1;PMS_P2;Temp;Humidity;BMP_temperature;BMP_pressure;BME280_temperature;BME280_humidity;BME280_pressure;Samples;Min_cycle;Max_cycle;Signal;HPM_P1;HPM_P2
2022/02/25 00:01:52;;;;;;;10.05;2.70;;;4.20;90.90;;;;;;6070955;23;100147;-73
2022/02/25 00:04:19;;;;;;;8.38;2.40;;;4.30;91.00;;;;;;6096092;23;98511;-73
2022/02/25 00:06:46;;;;;;;10.73;2.58;;;4.30;91.10;;;;;;6121796;23;98520;-73
2022/02/25 00:09:13;;;;;;;13.13;2.08;;;4.40;91.00;;;;;;6121671;23;99291;-73
2022/02/25 00:11:42;;;;;;;11.82;1.90;;;4.40;90.80;;;;;;6121249;23;99293;-73
2022/02/25 00:14:09;;;;;;;11.73;2.20;;;4.50;90.80;;;;;;6095144;23;101413;-73
2022/02/25 00:16:36;;;;;;;5.88;1.55;;;4.50;90.80;;;;;;6096149;23;97801;-73
2022/02/25 00:19:03;;;;;;;9.63;1.67;;;4.60;90.70;;;;;;6070537;23;101874;-73
2022/02/25 00:21:30;;;;;;;6.25;1.70;;;4.60;90.70;;;;;;6095441;23;99020;-73
2022/02/25 00:23:57;;;;;;;11.18;2.00;;;4.70;90.60;;;;;;6121456;23;99177;-73
2022/02/25 00:26:24;;;;;;;8.48;2.30;;;4.80;90.40;;;;;;6095976;23;98496;-73
2022/02/25 00:28:52;;;;;;;7.30;1.50;;;4.90;90.30;;;;;;6094802;23;109983;-73
2022/02/25 00:31:19;;;;;;;6.20;1.77;;;4.90;90.20;;;;;;6094889;23;101236;-73
2022/02/25 00:33:47;;;;;;;10.45;2.35;;;5.00;90.20;;;;;;6072172;23;98928;-73
2022/02/25 00:36:14;;;;;;;5.70;1.65;;;5.00;90.00;;;;;;6095479;23;98567;-73
2022/02/25 00:38:41;;;;;;;10.88;1.98;;;5.10;90.10;;;;;;6121319;23;99261;-73
2022/02/25 00:41:10;;;;;;;12.70;1.95;;;5.10;90.00;;;;;;6095432;23;98987;-73
2022/02/25 00:43:37;;;;;;;7.70;1.83;;;5.20;89.90;;;;;;6121965;23;98414;-73
2022/02/25 00:46:04;;;;;;;13.38;2.15;;;5.20;89.30;;;;;;6070700;23;98877;-73
2022/02/25 00:48:31;;;;;;;10.40;2.20;;;5.20;89.30;;;;;;6120543;23;108861;-73
2022/02/25 00:51:00;;;;;;;10.00;1.70;;;5.30;89.10;;;;;;6071640;23;99870;-73
2022/02/25 00:53:27;;;;;;;8.23;1.90;;;5.30;89.10;;;;;;6071127;23;98501;-73
2022/02/25 00:55:54;;;;;;;9.65;1.98;;;5.40;88.40;;;;;;6095070;23;98567;-73
2022/02/25 00:58:21;;;;;;;8.63;2.00;;;5.40;88.10;;;;;;6121471;23;99132;-73
2022/02/25 01:00:48;;;;;;;7.78;1.65;;;5.50;88.30;;;;;;6121076;23;99092;-73
2022/02/25 01:03:15;;;;;;;10.25;1.73;;;5.50;87.60;;;;;;6071743;23;98596;-73
2022/02/25 01:05:42;;;;;;;6.05;1.80;;;5.60;87.90;;;;;;6121969;23;98676;-73
2022/02/25 01:08:09;;;;;;;8.57;1.75;;;5.60;87.60;;;;;;6094768;23;101915;-73
2022/02/25 01:10:37;;;;;;;9.90;1.73;;;5.60;87.20;;;;;;6094979;23;101505;-73
2022/02/25 01:13:04;;;;;;;7.10;1.80;;;5.60;87.00;;;;;;6094530;23;99349;-73
2022/02/25 01:15:31;;;;;;;9.18;1.70;;;5.70;87.20;;;;;;6121882;23;98545;-73
2022/02/25 01:17:57;;;;;;;9.07;1.60;;;5.70;86.90;;;;;;6094332;23;100265;-73
2022/02/25 01:20:24;;;;;;;8.07;1.65;;;5.70;86.60;;;;;;6069997;23;109955;-73
2022/02/25 01:22:51;;;;;;;9.25;2.33;;;5.80;86.60;;;;;;6095061;23;98594;-73
2022/02/25 01:25:19;;;;;;;9.75;2.28;;;5.80;86.50;;;;;;6121724;23;98497;-73
2022/02/25 01:27:46;;;;;;;6.63;1.63;;;5.80;85.90;;;;;;6070004;23;101785;-73
2022/02/25 01:30:13;;;;;;;6.75;1.55;;;5.80;86.30;;;;;;6121672;23;99085;-73
2022/02/25 01:32:41;;;;;;;7.13;1.55;;;5.90;85.90;;;;;;6121723;23;98359;-73
2022/02/25 01:35:08;;;;;;;12.48;2.10;;;5.90;85.70;;;;;;6095198;23;98546;-73
2022/02/25 01:37:35;;;;;;;10.07;1.73;;;5.90;85.70;;;;;;6119249;23;100012;-73
2022/02/25 01:40:03;;;;;;;9.63;1.83;;;5.90;86.20;;;;;;6120046;23;112426;-73
2022/02/25 01:42:30;;;;;;;6.75;1.90;;;6.00;85.90;;;;;;6095499;23;98475;-73
2022/02/25 01:44:57;;;;;;;7.30;1.67;;;6.00;85.40;;;;;;6094768;23;98982;-73
2022/02/25 01:47:24;;;;;;;9.43;2.03;;;6.00;85.60;;;;;;6121025;23;99193;-73
2022/02/25 01:49:52;;;;;;;10.00;2.25;;;6.10;85.40;;;;;;6070013;23;101455;-73
2022/02/25 01:52:20;;;;;;;6.28;1.65;;;6.10;85.50;;;;;;6071365;23;98927;-73
2022/02/25 01:54:47;;;;;;;11.52;2.17;;;6.10;85.10;;;;;;6096472;23;97946;-73
2022/02/25 01:57:16;;;;;;;5.78;2.10;;;6.10;85.10;;;;;;6122302;23;99171;-73
2022/02/25 01:59:43;;;;;;;8.90;2.13;;;6.10;84.80;;;;;;6096205;23;98929;-73
2022/02/25 02:02:10;;;;;;;9.93;1.85;;;6.20;84.80;;;;;;6121527;23;99316;-73
2022/02/25 02:04:38;;;;;;;4.63;1.30;;;6.20;84.70;;;;;;6096698;23;98582;-73
2022/02/25 02:07:05;;;;;;;6.60;1.48;;;6.20;84.40;;;;;;6095366;23;101748;-73
2022/02/25 02:09:32;;;;;;;8.23;2.03;;;6.30;84.40;;;;;;6071693;23;99001;-73
2022/02/25 02:11:59;;;;;;;11.73;1.83;;;6.30;84.60;;;;;;6095593;23;98576;-73
2022/02/25 02:14:26;;;;;;;7.55;1.90;;;6.30;83.90;;;;;;6122083;23;98834;-73
2022/02/25 02:16:56;;;;;;;4.25;1.52;;;6.30;84.20;;;;;;6095862;23;99354;-73
2022/02/25 02:19:24;;;;;;;9.80;1.85;;;6.30;84.40;;;;;;6122719;23;99553;-73
2022/02/25 02:21:53;;;;;;;7.53;1.55;;;6.30;84.10;;;;;;6096043;23;98507;-73
2022/02/25 02:24:23;;;;;;;8.10;2.28;;;6.30;84.20;;;;;;6095744;23;98581;-73
2022/02/25 02:26:52;;;;;;;12.32;2.63;;;6.30;84.20;;;;;;6095129;23;109403;-73
2022/02/25 02:29:19;;;;;;;9.63;2.17;;;6.30;84.20;;;;;;6096144;23;99748;-73
2022/02/25 02:31:46;;;;;;;8.52;3.45;;;6.30;84.40;;;;;;6122426;23;98507;-73
2022/02/25 02:34:15;;;;;;;11.10;1.55;;;6.40;84.30;;;;;;6095596;23;98453;-73
2022/02/25 02:36:43;;;;;;;7.10;1.95;;;6.40;84.00;;;;;;6122124;23;99007;-73
2022/02/25 02:39:11;;;;;;;8.82;1.73;;;6.40;83.70;;;;;;6095108;23;99848;-73
2022/02/25 02:41:39;;;;;;;12.00;2.35;;;6.40;83.60;;;;;;6096458;23;98500;-73
2022/02/25 02:44:07;;;;;;;5.88;1.80;;;6.40;83.30;;;;;;6096728;23;98204;-73
2022/02/25 02:46:34;;;;;;;9.80;1.65;;;6.30;83.40;;;;;;6070982;23;101840;-73
2022/02/25 02:49:04;;;;;;;11.80;1.67;;;6.20;84.20;;;;;;6094983;23;101669;-73
2022/02/25 02:51:31;;;;;;;7.75;1.85;;;6.10;83.70;;;;;;6095862;23;99403;-73
2022/02/25 02:53:59;;;;;;;12.35;2.58;;;6.00;84.10;;;;;;6096162;23;99045;-73
2022/02/25 02:56:26;;;;;;;11.30;1.88;;;5.90;84.40;;;;;;6121868;23;99536;-73
2022/02/25 02:58:56;;;;;;;8.70;1.60;;;5.90;84.80;;;;;;6121357;23;113902;-73
2022/02/25 03:01:27;;;;;;;12.45;2.33;;;5.80;85.40;;;;;;6122566;23;98442;-73
2022/02/25 03:03:54;;;;;;;15.32;1.90;;;5.70;85.70;;;;;;6071340;23;98506;-73
2022/02/25 03:06:23;;;;;;;10.48;2.33;;;5.60;85.70;;;;;;6070474;23;102315;-73
2022/02/25 03:08:50;;;;;;;9.38;2.10;;;5.60;85.90;;;;;;6122360;23;99016;-73
2022/02/25 03:11:17;;;;;;;5.55;2.15;;;5.50;86.40;;;;;;6096067;23;98602;-73
2022/02/25 03:13:45;;;;;;;8.57;1.98;;;5.40;86.60;;;;;;6096443;23;98732;-73
2022/02/25 03:16:12;;;;;;;7.80;2.05;;;5.30;86.90;;;;;;6094214;23;108030;-73
2022/02/25 03:18:39;;;;;;;10.05;2.05;;;5.20;87.60;;;;;;6120891;23;110545;-73
2022/02/25 03:21:07;;;;;;;6.03;2.20;;;5.10;88.10;;;;;;6121606;23;98707;-73
2022/02/25 03:23:34;;;;;;;11.77;1.98;;;5.00;88.10;;;;;;6096163;23;98559;-73
2022/02/25 03:26:01;;;;;;;6.80;1.67;;;4.90;88.10;;;;;;6095761;23;98989;-73
2022/02/25 03:28:28;;;;;;;8.80;2.95;;;4.80;88.30;;;;;;6095801;23;98926;-73
2022/02/25 03:30:57;;;;;;;9.82;2.20;;;4.70;89.20;;;;;;6122387;23;98966;-73
2022/02/25 03:33:25;;;;;;;8.27;1.92;;;4.70;89.30;;;;;;6096796;23;97769;-73
2022/02/25 03:35:52;;;;;;;10.75;2.63;;;4.60;89.50;;;;;;6121821;23;99344;-73
2022/02/25 03:38:19;;;;;;;8.65;1.77;;;4.60;89.60;;;;;;6121436;23;99060;-73
2022/02/25 03:40:46;;;;;;;6.47;1.75;;;4.50;89.80;;;;;;6070951;23;99261;-73
2022/02/25 03:43:13;;;;;;;7.43;1.70;;;4.50;89.90;;;;;;6095467;23;98586;-73
2022/02/25 03:45:41;;;;;;;11.68;2.33;;;4.40;89.90;;;;;;6095625;23;99299;-73
2022/02/25 03:48:08;;;;;;;13.00;2.80;;;4.40;90.20;;;;;;6121468;23;98980;-73
2022/02/25 03:50:34;;;;;;;6.22;1.90;;;4.30;90.10;;;;;;6122307;23;98772;-73
2022/02/25 03:53:01;;;;;;;6.55;1.45;;;4.30;90.30;;;;;;6122029;23;98466;-73
2022/02/25 03:55:28;;;;;;;7.75;2.05;;;4.20;90.30;;;;;;6121416;23;99354;-73
2022/02/25 03:57:56;;;;;;;7.07;2.20;;;4.20;90.40;;;;;;6095583;23;101486;-73
2022/02/25 04:00:23;;;;;;;9.07;1.73;;;4.20;90.30;;;;;;6095348;23;98419;-73
2022/02/25 04:02:50;;;;;;;8.02;1.83;;;4.10;90.40;;;;;;6122144;23;98526;-73
2022/02/25 04:05:17;;;;;;;11.65;1.80;;;4.10;90.30;;;;;;6120726;23;100007;-73
2022/02/25 04:07:44;;;;;;;8.20;2.35;;;4.10;90.40;;;;;;6121669;23;99817;-73
2022/02/25 04:10:12;;;;;;;4.85;1.70;;;4.00;90.50;;;;;;6096083;23;98471;-73
2022/02/25 04:12:40;;;;;;;10.70;1.80;;;4.00;90.50;;;;;;6122079;23;99022;-73
2022/02/25 04:15:09;;;;;;;6.88;1.65;;;4.00;90.50;;;;;;6094600;23;102064;-73
2022/02/25 04:17:36;;;;;;;12.02;2.42;;;4.00;90.70;;;;;;6095485;23;98932;-73
2022/02/25 04:20:04;;;;;;;7.00;1.75;;;3.90;90.70;;;;;;6095882;23;98487;-73
2022/02/25 04:22:31;;;;;;;7.70;1.85;;;3.90;90.80;;;;;;6095697;23;97881;-73
2022/02/25 04:24:58;;;;;;;9.93;1.98;;;3.90;90.80;;;;;;6094962;23;101742;-73
2022/02/25 04:27:25;;;;;;;8.80;1.75;;;3.90;90.90;;;;;;6094759;23;101590;-73
2022/02/25 04:29:52;;;;;;;11.70;2.22;;;3.90;90.90;;;;;;6095196;23;99263;-74
2022/02/25 04:32:20;;;;;;;10.07;2.40;;;3.90;90.90;;;;;;6095076;23;98599;-73
2022/02/25 04:34:48;;;;;;;8.30;1.67;;;3.90;90.80;;;;;;6070600;23;101875;-73
2022/02/25 04:37:15;;;;;;;10.45;2.13;;;3.90;90.90;;;;;;6121228;23;99059;-73
2022/02/25 04:39:42;;;;;;;11.00;2.45;;;3.90;90.80;;;;;;6122250;23;98780;-73
2022/02/25 04:42:09;;;;;;;10.55;1.73;;;3.80;90.90;;;;;;6121570;23;98641;-73
2022/02/25 04:44:36;;;;;;;6.65;1.67;;;3.80;91.00;;;;;;6121154;23;101649;-73
2022/02/25 04:47:04;;;;;;;8.20;1.92;;;3.80;91.00;;;;;;6095444;23;100011;-73
2022/02/25 04:49:31;;;;;;;10.65;2.58;;;3.80;91.10;;;;;;6121670;23;98397;-73
2022/02/25 04:51:58;;;;;;;13.13;3.33;;;3.80;91.10;;;;;;6121830;23;98467;-73
2022/02/25 04:54:25;;;;;;;10.05;2.25;;;3.80;91.00;;;;;;6120684;23;99869;-73
2022/02/25 04:56:52;;;;;;;7.50;1.88;;;3.80;90.90;;;;;;6095436;23;99722;-73
2022/02/25 04:59:19;;;;;;;12.85;2.08;;;3.80;91.10;;;;;;6095176;23;98567;-73
2022/02/25 05:01:46;;;;;;;14.43;1.92;;;3.70;91.10;;;;;;6121856;23;98443;-72
2022/02/25 05:04:13;;;;;;;8.60;2.40;;;3.70;91.00;;;;;;6095296;23;99184;-73
2022/02/25 05:06:41;;;;;;;9.48;1.75;;;3.70;91.10;;;;;;6070233;23;101611;-73
2022/02/25 05:09:08;;;;;;;8.20;2.10;;;3.70;91.10;;;;;;6121920;23;98462;-73
2022/02/25 05:11:34;;;;;;;7.55;1.65;;;3.80;91.20;;;;;;6121916;23;97717;-73
2022/02/25 05:14:02;;;;;;;8.02;1.50;;;3.80;91.40;;;;;;6094868;23;99141;-73
2022/02/25 05:22:00;;;;;;;10.10;2.05;;;4.00;91.00;;;;;;6121673;23;98512;-73
2022/02/25 05:24:28;;;;;;;10.93;2.08;;;4.10;91.10;;;;;;6120964;23;99267;-73
2022/02/25 05:26:55;;;;;;;14.30;2.00;;;4.10;91.00;;;;;;6094386;23;102312;-73
2022/02/25 05:29:22;;;;;;;12.95;2.30;;;4.20;90.90;;;;;;6095252;23;98467;-73
2022/02/25 05:31:49;;;;;;;7.88;2.00;;;4.30;90.70;;;;;;6095270;23;98458;-73
2022/02/25 05:34:17;;;;;;;9.45;2.05;;;4.30;90.50;;;;;;6094584;23;101693;-73
2022/02/25 05:36:44;;;;;;;13.50;3.22;;;4.30;90.50;;;;;;6095318;23;99603;-73
2022/02/25 05:39:11;;;;;;;12.05;1.90;;;4.20;90.50;;;;;;6070761;23;98493;-73
2022/02/25 05:41:38;;;;;;;9.52;2.08;;;4.30;90.50;;;;;;6094564;23;98577;-73
2022/02/25 05:44:05;;;;;;;10.07;1.90;;;4.20;90.40;;;;;;6094072;23;102239;-73
2022/02/25 05:46:32;;;;;;;9.00;2.35;;;4.20;90.50;;;;;;6120879;23;100313;-73
2022/02/25 05:48:59;;;;;;;12.07;2.45;;;4.20;90.60;;;;;;6095101;23;98527;-73
2022/02/25 05:51:26;;;;;;;11.18;4.38;;;4.10;90.60;;;;;;6093899;23;110539;-73
2022/02/25 05:53:54;;;;;;;15.18;1.90;;;4.10;90.60;;;;;;6095120;23;99223;-73
2022/02/25 05:56:21;;;;;;;13.20;2.40;;;4.10;90.80;;;;;;6121010;23;98928;-73
2022/02/25 05:58:48;;;;;;;5.85;2.45;;;4.10;90.80;;;;;;6094864;23;98609;-73
2022/02/25 06:01:15;;;;;;;8.27;1.90;;;4.10;90.80;;;;;;6121903;23;97721;-73
2022/02/25 06:03:42;;;;;;;16.60;2.22;;;4.10;91.10;;;;;;6069606;23;101794;-72
2022/02/25 06:06:09;;;;;;;10.57;2.33;;;4.20;91.10;;;;;;6094618;23;99141;-73
2022/02/25 06:08:37;;;;;;;10.63;2.20;;;4.30;91.00;;;;;;6093763;23;100186;-72
2022/02/25 06:11:04;;;;;;;8.80;1.63;;;4.40;90.90;;;;;;6121274;23;98467;-73
2022/02/25 06:13:31;;;;;;;7.70;1.70;;;4.30;90.80;;;;;;6120196;23;99094;-72
2022/02/25 06:15:58;;;;;;;10.55;2.08;;;4.40;90.70;;;;;;6094397;23;101621;-73
2022/02/25 06:18:25;;;;;;;12.30;2.38;;;4.40;90.60;;;;;;6121225;23;98459;-73
2022/02/25 06:20:52;;;;;;;10.35;1.70;;;4.40;90.70;;;;;;6094731;23;98514;-72
2022/02/25 06:23:22;;;;;;;8.15;1.80;;;4.50;90.60;;;;;;6093815;23;106938;-72
2022/02/25 06:25:49;;;;;;;15.35;2.28;;;4.50;90.60;;;;;;6094707;23;98899;-72
2022/02/25 06:28:16;;;;;;;10.40;2.28;;;4.60;90.50;;;;;;6069670;23;104341;-72
2022/02/25 06:30:43;;;;;;;9.23;1.92;;;4.70;90.50;;;;;;6120892;23;99031;-72
2022/02/25 06:33:10;;;;;;;8.48;1.90;;;4.80;90.60;;;;;;6120109;23;99970;-72
2022/02/25 06:35:37;;;;;;;12.43;1.70;;;4.90;90.50;;;;;;6120304;23;99356;-73
2022/02/25 06:38:04;;;;;;;9.48;2.72;;;4.90;90.20;;;;;;6119653;23;98535;-72
2022/02/25 06:40:32;;;;;;;10.93;2.20;;;5.00;90.20;;;;;;6122171;23;98522;-73
2022/02/25 06:42:59;;;;;;;11.90;2.10;;;5.00;90.20;;;;;;6071156;23;101783;-73
2022/02/25 06:45:26;;;;;;;10.50;2.95;;;5.00;90.40;;;;;;6095952;23;99095;-73
2022/02/25 06:47:53;;;;;;;11.35;2.22;;;5.10;90.40;;;;;;6095746;23;98534;-72
2022/02/25 06:50:20;;;;;;;15.15;2.72;;;5.10;90.40;;;;;;6096114;23;97777;-73
2022/02/25 06:52:47;;;;;;;9.32;2.05;;;5.20;90.30;;;;;;6094940;23;101969;-73
2022/02/25 06:55:16;;;;;;;11.63;2.30;;;5.20;90.60;;;;;;6071047;23;101375;-73
2022/02/25 06:58:02;;;;;;;9.63;1.77;;;5.20;90.50;;;;;;6095713;23;99727;-73
2022/02/25 07:00:36;;;;;;;13.18;2.80;;;5.30;90.50;;;;;;6122472;23;98623;-73
2022/02/25 07:03:05;;;;;;;10.98;2.42;;;5.30;90.50;;;;;;6095555;23;101999;-72
2022/02/25 07:05:33;;;;;;;13.13;2.20;;;5.30;90.50;;;;;;6122130;23;99005;-73
2022/02/25 07:08:00;;;;;;;9.73;2.15;;;5.30;90.30;;;;;;6095708;23;98558;-73
2022/02/25 07:10:30;;;;;;;12.43;2.50;;;5.30;90.10;;;;;;6122103;23;98837;-72
2022/02/25 07:12:57;;;;;;;7.82;2.00;;;5.40;90.30;;;;;;6095377;23;99320;-73
2022/02/25 07:15:24;;;;;;;9.55;2.40;;;5.50;90.10;;;;;;6095280;23;98895;-73
2022/02/25 07:17:51;;;;;;;12.30;3.38;;;5.50;90.30;;;;;;6122075;23;98502;-73
2022/02/25 07:20:18;;;;;;;42.58;4.97;;;5.60;90.30;;;;;;6122183;23;98419;-73
2022/02/25 07:22:46;;;;;;;10.32;3.25;;;5.60;90.30;;;;;;6095005;23;100127;-73
2022/02/25 07:25:14;;;;;;;9.02;2.42;;;5.60;90.20;;;;;;6121783;23;99798;-73
2022/02/25 07:27:42;;;;;;;13.63;2.72;;;5.70;90.10;;;;;;6121433;23;98521;-72
2022/02/25 07:30:10;;;;;;;11.98;3.15;;;5.70;90.30;;;;;;6120711;23;98599;-73
2022/02/25 07:32:38;;;;;;;8.05;2.30;;;5.70;90.30;;;;;;6070261;23;101815;-73
2022/02/25 07:35:07;;;;;;;5.68;1.83;;;5.70;90.50;;;;;;6121777;23;98992;-73
2022/02/25 07:37:35;;;;;;;14.23;3.00;;;5.70;90.40;;;;;;6122273;23;98387;-73
2022/02/25 07:40:04;;;;;;;14.48;3.00;;;5.80;90.40;;;;;;6095571;23;97899;-73
2022/02/25 07:42:31;;;;;;;11.75;2.95;;;5.80;90.60;;;;;;6070885;23;99213;-73
2022/02/25 07:44:58;;;;;;;11.90;3.10;;;5.80;90.70;;;;;;6094672;23;112050;-73
2022/02/25 07:47:26;;;;;;;12.00;2.70;;;5.80;90.30;;;;;;6121856;23;99584;-73
2022/02/25 07:49:53;;;;;;;14.23;3.00;;;5.80;90.20;;;;;;6121708;23;98528;-73
2022/02/25 07:52:22;;;;;;;7.78;2.58;;;5.80;90.20;;;;;;6095288;23;99160;-73
2022/02/25 07:54:50;;;;;;;15.57;3.30;;;5.80;90.40;;;;;;6121432;23;99024;-73
2022/02/25 07:57:18;;;;;;;10.40;2.40;;;5.80;90.50;;;;;;6096008;23;98717;-72
2022/02/25 07:59:58;;;;;;;9.35;2.20;;;5.80;90.60;;;;;;6098525;23;98474;-73
2022/02/25 08:02:26;;;;;;;10.55;2.40;;;5.90;90.70;;;;;;6121424;23;107468;-73
2022/02/25 08:04:53;;;;;;;14.80;5.28;;;6.10;90.70;;;;;;6121815;23;98997;-73
2022/02/25 08:07:27;;;;;;;10.20;5.72;;;6.20;90.50;;;;;;6095842;23;98604;-72
2022/02/25 08:09:54;;;;;;;11.68;4.68;;;6.40;90.30;;;;;;6095237;23;98607;-73
2022/02/25 08:12:22;;;;;;;15.13;6.93;;;6.70;90.20;;;;;;6094332;23;102508;-73
2022/02/25 08:14:49;;;;;;;12.63;5.43;;;6.90;90.20;;;;;;6120482;23;99472;-73
2022/02/25 08:17:16;;;;;;;11.73;2.60;;;7.30;89.60;;;;;;6095380;23;98584;-73
2022/02/25 08:19:43;;;;;;;10.68;1.98;;;7.40;88.30;;;;;;6071242;23;98583;-73
2022/02/25 08:22:10;;;;;;;10.10;2.53;;;7.50;87.30;;;;;;6121478;23;99755;-73
2022/02/25 08:24:37;;;;;;;5.00;1.60;;;7.40;86.20;;;;;;6070229;23;101418;-73
2022/02/25 08:27:04;;;;;;;13.13;2.13;;;7.30;87.00;;;;;;6121769;23;98374;-73
2022/02/25 08:29:33;;;;;;;12.85;2.72;;;7.20;86.60;;;;;;6096708;23;97773;-73
2022/02/25 08:32:00;;;;;;;9.02;2.03;;;7.10;86.50;;;;;;6095096;23;99301;-73
2022/02/25 08:34:28;;;;;;;11.73;3.30;;;7.10;86.90;;;;;;6095376;23;98985;-73
2022/02/25 08:36:58;;;;;;;13.63;2.85;;;7.10;87.60;;;;;;6095209;23;99255;-73
2022/02/25 08:39:25;;;;;;;13.52;2.95;;;7.10;88.10;;;;;;6095765;23;98518;-73
2022/02/25 08:41:52;;;;;;;13.02;2.33;;;7.30;88.50;;;;;;6094479;23;106340;-73
2022/02/25 08:44:19;;;;;;;10.30;2.72;;;7.50;88.40;;;;;;6094962;23;101996;-73
2022/02/25 08:46:47;;;;;;;12.05;2.10;;;7.70;87.80;;;;;;6095363;23;98608;-73
2022/02/25 08:49:14;;;;;;;13.95;2.72;;;8.00;88.10;;;;;;6096832;23;99028;-73
2022/02/25 08:51:43;;;;;;;10.20;2.00;;;8.20;87.30;;;;;;6095245;23;99197;-73
2022/02/25 08:54:11;;;;;;;8.07;2.33;;;8.40;86.10;;;;;;6094880;23;102250;-73
2022/02/25 08:56:39;;;;;;;14.75;2.75;;;8.60;85.50;;;;;;6095080;23;98961;-73
2022/02/25 08:59:06;;;;;;;12.30;2.20;;;8.80;84.80;;;;;;6095327;23;98685;-73
2022/02/25 09:01:34;;;;;;;12.15;2.42;;;8.90;84.20;;;;;;6094312;23;102563;-73
2022/02/25 09:04:02;;;;;;;13.23;2.60;;;9.00;83.60;;;;;;6070028;23;99562;-73
2022/02/25 09:06:30;;;;;;;9.50;1.98;;;9.10;83.40;;;;;;6095192;23;100873;-73
2022/02/25 09:08:58;;;;;;;11.15;2.42;;;9.10;82.70;;;;;;6121561;23;98494;-73
2022/02/25 09:11:26;;;;;;;12.38;2.35;;;9.20;82.00;;;;;;6094721;23;102326;-73
2022/02/25 09:14:07;;;;;;;9.45;1.90;;;9.20;81.80;;;;;;6076343;23;99424;-74
2022/02/25 09:16:34;;;;;;;11.35;2.33;;;9.10;81.60;;;;;;6121898;23;98388;-73
2022/02/25 09:19:02;;;;;;;8.48;1.98;;;9.00;81.40;;;;;;6121838;23;97756;-73
2022/02/25 09:21:29;;;;;;;5.65;1.40;;;8.90;81.40;;;;;;6094560;23;102434;-73
2022/02/25 09:23:57;;;;;;;9.30;2.08;;;8.70;80.20;;;;;;6094351;23;101812;-73
2022/02/25 09:26:24;;;;;;;9.32;1.80;;;8.70;79.80;;;;;;6094786;23;99238;-73
2022/02/25 09:28:51;;;;;;;8.73;1.70;;;8.60;80.80;;;;;;6071133;23;98580;-72
2022/02/25 09:31:19;;;;;;;12.07;2.22;;;8.50;80.90;;;;;;6121159;23;99506;-72
2022/02/25 09:33:48;;;;;;;7.28;1.77;;;8.40;81.40;;;;;;6121136;23;99183;-73
2022/02/25 09:36:16;;;;;;;11.55;2.00;;;8.40;81.80;;;;;;6121356;23;98400;-73
2022/02/25 09:38:43;;;;;;;7.85;2.10;;;8.30;82.50;;;;;;6070527;23;98540;-73
2022/02/25 09:41:10;;;;;;;13.95;2.72;;;8.20;82.90;;;;;;6094769;23;99249;-73
2022/02/25 09:43:38;;;;;;;11.07;1.88;;;8.10;83.40;;;;;;6094787;23;104690;-73
2022/02/25 09:46:06;;;;;;;9.50;2.45;;;8.10;83.80;;;;;;6094663;23;98450;-73
2022/02/25 09:48:33;;;;;;;11.60;2.45;;;8.00;84.40;;;;;;6046391;23;98970;-73
2022/02/25 09:51:00;;;;;;;12.15;2.60;;;8.10;84.70;;;;;;6120169;23;99877;-74
2022/02/25 09:53:29;;;;;;;10.52;2.70;;;8.20;84.90;;;;;;6120949;23;99613;-72
2022/02/25 09:55:56;;;;;;;12.40;2.50;;;8.30;84.60;;;;;;6095788;23;98951;-73
2022/02/25 09:58:24;;;;;;;9.35;2.10;;;8.40;84.10;;;;;;6095325;23;98545;-73
2022/02/25 10:00:54;;;;;;;15.02;2.42;;;8.50;83.90;;;;;;6094684;23;102172;-73
2022/02/25 10:03:21;;;;;;;13.70;2.78;;;8.70;84.10;;;;;;6094597;23;98998;-73
2022/02/25 10:05:48;;;;;;;17.02;2.83;;;8.80;83.60;;;;;;6121746;23;98954;-72
2022/02/25 10:08:17;;;;;;;12.45;2.47;;;9.00;82.80;;;;;;6121528;23;97780;-73
2022/02/25 10:10:46;;;;;;;10.02;2.28;;;9.20;81.60;;;;;;6120870;23;99283;-73
2022/02/25 10:13:14;;;;;;;16.60;2.45;;;9.40;80.70;;;;;;6069295;23;101925;-73
2022/02/25 10:15:43;;;;;;;12.52;2.00;;;9.50;80.50;;;;;;6121991;23;99586;-73
2022/02/25 10:18:15;;;;;;;14.23;2.22;;;9.70;79.60;;;;;;6122296;23;98460;-73
2022/02/25 10:20:45;;;;;;;11.05;2.00;;;9.90;79.10;;;;;;6096061;23;99834;-73
2022/02/25 10:23:30;;;;;;;15.40;2.63;;;10.00;78.30;;;;;;6095455;23;101708;-73
2022/02/25 10:26:11;;;;;;;14.50;2.78;;;10.20;77.60;;;;;;6096144;23;98944;-73
2022/02/25 10:28:50;;;;;;;13.45;2.35;;;10.30;77.40;;;;;;6122547;23;98408;-73
2022/02/25 10:31:29;;;;;;;15.90;2.75;;;10.30;76.60;;;;;;6121780;23;99379;-73
2022/02/25 10:34:05;;;;;;;11.23;2.40;;;10.70;76.80;;;;;;6095959;23;101680;-73
2022/02/25 10:36:53;;;;;;;15.38;2.55;;;11.10;76.50;;;;;;6096342;23;98439;-73
2022/02/25 10:39:29;;;;;;;15.07;2.80;;;11.30;75.20;;;;;;6122236;23;98453;-73
2022/02/25 10:41:59;;;;;;;13.82;3.50;;;11.40;74.00;;;;;;6095285;23;100049;-73
2022/02/25 10:44:44;;;;;;;15.98;2.90;;;11.40;73.90;;;;;;6121694;23;100753;-73
2022/02/25 10:47:12;;;;;;;12.55;2.60;;;11.30;73.70;;;;;;6122285;23;98547;-73
2022/02/25 10:49:39;;;;;;;13.75;2.78;;;11.10;73.70;;;;;;6071295;23;98537;-73
2022/02/25 10:52:31;;;;;;;11.45;3.03;;;11.00;72.60;;;;;;6046680;23;101752;-73
2022/02/25 10:54:59;;;;;;;12.68;2.47;;;10.90;72.40;;;;;;6121930;23;98968;-73
2022/02/25 10:57:27;;;;;;;14.60;2.58;;;10.80;72.70;;;;;;6096026;23;98508;-73
2022/02/25 10:59:57;;;;;;;13.25;3.22;;;10.70;72.40;;;;;;6122903;23;97834;-73
2022/02/25 11:02:38;;;;;;;13.80;3.08;;;10.80;72.60;;;;;;6121788;23;99223;-73
2022/02/25 11:05:11;;;;;;;10.95;3.17;;;10.80;72.50;;;;;;6121712;23;98899;-73
2022/02/25 11:07:41;;;;;;;10.02;2.38;;;10.70;73.00;;;;;;6095400;23;99285;-73
2022/02/25 11:10:10;;;;;;;18.65;2.75;;;10.60;74.20;;;;;;6095284;23;99026;-73
2022/02/25 11:12:41;;;;;;;12.57;2.10;;;10.30;74.50;;;;;;6121811;23;99114;-73
2022/02/25 11:15:12;;;;;;;10.05;2.20;;;10.00;76.40;;;;;;6094317;23;100035;-73
2022/02/25 11:17:42;;;;;;;13.20;2.40;;;9.80;77.10;;;;;;6122323;23;98564;-73
2022/02/25 11:20:13;;;;;;;14.70;2.20;;;9.60;78.60;;;;;;6096350;23;98458;-73
2022/02/25 11:22:43;;;;;;;13.95;3.08;;;9.50;78.80;;;;;;6121755;23;99293;-73
2022/02/25 11:25:15;;;;;;;12.65;2.72;;;9.50;79.20;;;;;;6121683;23;99023;-73
2022/02/25 11:27:44;;;;;;;11.25;2.33;;;9.60;79.00;;;;;;6122362;23;98408;-73
2022/02/25 11:30:32;;;;;;;10.10;2.45;;;9.60;78.40;;;;;;6095795;23;98648;-73
2022/02/25 11:33:03;;;;;;;10.18;1.95;;;9.60;77.60;;;;;;6121302;23;100072;-73
2022/02/25 11:35:38;;;;;;;7.28;1.85;;;9.50;77.80;;;;;;6121267;23;99995;-73
2022/02/25 11:38:07;;;;;;;9.40;2.03;;;9.50;77.50;;;;;;6122326;23;98363;-72
2022/02/25 11:40:51;;;;;;;6.50;1.67;;;9.40;77.60;;;;;;6070593;23;98574;-73
2022/02/25 11:43:35;;;;;;;13.50;2.03;;;9.30;77.10;;;;;;6121452;23;99233;-73
2022/02/25 11:46:04;;;;;;;10.95;2.30;;;9.40;77.80;;;;;;6095601;23;98950;-73
2022/02/25 11:48:46;;;;;;;6.68;1.70;;;9.50;77.20;;;;;;6095217;23;101223;-73
2022/02/25 11:51:39;;;;;;;10.07;1.85;;;9.70;76.60;;;;;;6122434;23;98174;-73
2022/02/25 11:54:26;;;;;;;5.35;1.70;;;10.00;76.40;;;;;;6095536;23;99118;-73
2022/02/25 11:57:04;;;;;;;4.93;1.35;;;10.30;75.10;;;;;;6095362;23;101652;-73
2022/02/25 11:59:31;;;;;;;6.85;1.10;;;10.40;72.90;;;;;;6121667;23;99186;-73
2022/02/25 12:02:12;;;;;;;3.75;1.10;;;10.70;74.40;;;;;;6096077;23;98453;-72
2022/02/25 12:04:44;;;;;;;3.95;1.10;;;10.80;72.10;;;;;;6095354;23;99178;-73
2022/02/25 12:07:19;;;;;;;4.35;1.65;;;10.90;71.50;;;;;;6095572;23;98816;-73
2022/02/25 12:10:10;;;;;;;3.38;0.90;;;10.90;71.00;;;;;;6086893;23;98900;-73
2022/02/25 12:12:44;;;;;;;4.15;0.98;;;10.90;69.20;;;;;;6121810;23;98498;-73
2022/02/25 12:15:18;;;;;;;2.53;0.98;;;10.70;67.70;;;;;;6070450;23;101940;-73
2022/02/25 12:17:51;;;;;;;4.30;1.17;;;10.50;68.90;;;;;;6095629;23;101674;-73
2022/02/25 12:20:38;;;;;;;4.15;1.13;;;10.40;69.90;;;;;;6070995;23;98525;-73
2022/02/25 12:23:09;;;;;;;3.42;1.25;;;10.30;69.40;;;;;;6122036;23;98467;-73
2022/02/25 12:25:39;;;;;;;5.72;1.00;;;10.50;71.90;;;;;;6070069;23;101217;-73
2022/02/25 12:28:10;;;;;;;4.75;1.63;;;10.70;71.30;;;;;;6094599;23;102302;-73
2022/02/25 12:30:38;;;;;;;3.38;1.33;;;10.60;68.90;;;;;;6121818;23;98676;-73
2022/02/25 12:33:26;;;;;;;6.20;1.40;;;10.50;69.60;;;;;;6095414;23;98560;-73
2022/02/25 12:35:56;;;;;;;6.20;1.40;;;10.60;71.50;;;;;;6095262;23;99339;-73
2022/02/25 12:38:25;;;;;;;7.68;1.60;;;10.60;71.80;;;;;;6121069;23;98927;-73
2022/02/25 12:40:54;;;;;;;6.40;1.75;;;10.80;71.50;;;;;;6094893;23;98456;-73
2022/02/25 12:43:23;;;;;;;5.03;1.45;;;10.90;70.80;;;;;;6095519;23;97812;-73
2022/02/25 12:45:50;;;;;;;10.52;1.92;;;10.90;69.50;;;;;;6121358;23;99257;-73
2022/02/25 12:48:20;;;;;;;8.93;1.70;;;10.90;70.60;;;;;;6073055;23;101481;-76
2022/02/25 12:50:46;;;;;;;10.10;2.08;;;11.00;70.10;;;;;;6095695;23;99244;-76
2022/02/25 12:53:14;;;;;;;8.88;2.03;;;11.20;69.40;;;;;;6071538;23;98570;-76
2022/02/25 12:55:54;;;;;;;6.57;2.00;;;11.40;69.30;;;;;;6121184;23;99249;-76
2022/02/25 12:58:32;;;;;;;7.72;2.00;;;11.60;68.70;;;;;;6095065;23;101478;-76
2022/02/25 13:00:59;;;;;;;6.43;1.70;;;11.90;68.70;;;;;;6095734;23;98656;-76
2022/02/25 13:03:27;;;;;;;14.32;2.40;;;12.00;66.30;;;;;;6094867;23;98587;-76